ACA425 CYYZ-CYHZ
Flight info
| Callsign | ACA425 |
|---|---|
| Flight time | 1h 45m |
| Altitude | 37000 |
| Route | DEDKI5 OLABA Q951 TALNO Q929 TOXAL DCT EBONY FUNDY5 |
| Aircraft | A320/M-SDE3FGHIRWY/LB1 |
Departure
| Time | 2026-05-03 21:18 |
|---|---|
| Airport | Toronto Pearson International Airport (CYYZ) |
Arrival
| Time | 2026-05-03 23:04 |
|---|---|
| Airport | Halifax / Stanfield International Airport (CYHZ) |
| Time | Latitude | Longitude | Altitude | Speed | Heading |
|---|---|---|---|---|---|
| 2026-05-03 20:49 | 43.68052 | -79.61663 | 565 ft | 0 kts | 136° |
| 2026-05-03 21:07 | 43.68055 | -79.61667 | 561 ft | 4 kts | 136° |
| 2026-05-03 21:07 | 43.68075 | -79.61693 | 561 ft | 4 kts | 136° |
| 2026-05-03 21:07 | 43.68091 | -79.61714 | 571 ft | 2 kts | 135° |
| 2026-05-03 21:07 | 43.68111 | -79.61734 | 564 ft | 4 kts | 171° |
| 2026-05-03 21:08 | 43.68133 | -79.61733 | 566 ft | 1 kts | 197° |
| 2026-05-03 21:08 | 43.68133 | -79.61732 | 566 ft | 0 kts | 197° |
| 2026-05-03 21:10 | 43.68109 | -79.61755 | 569 ft | 7 kts | 224° |
| 2026-05-03 21:11 | 43.68082 | -79.61792 | 565 ft | 4 kts | 225° |
| 2026-05-03 21:11 | 43.68067 | -79.61814 | 564 ft | 2 kts | 226° |
| 2026-05-03 21:11 | 43.68037 | -79.61859 | 566 ft | 10 kts | 227° |
| 2026-05-03 21:11 | 43.67998 | -79.61921 | 565 ft | 9 kts | 239° |
| 2026-05-03 21:12 | 43.67973 | -79.62023 | 561 ft | 11 kts | 242° |
| 2026-05-03 21:12 | 43.67978 | -79.62106 | 567 ft | 10 kts | 308° |
| 2026-05-03 21:12 | 43.68064 | -79.62221 | 570 ft | 20 kts | 317° |
| 2026-05-03 21:12 | 43.68160 | -79.62347 | 564 ft | 18 kts | 316° |
| 2026-05-03 21:13 | 43.68250 | -79.62458 | 562 ft | 17 kts | 321° |
| 2026-05-03 21:13 | 43.68335 | -79.62561 | 562 ft | 15 kts | 316° |
| 2026-05-03 21:13 | 43.68411 | -79.62661 | 567 ft | 15 kts | 316° |
| 2026-05-03 21:13 | 43.68487 | -79.62761 | 565 ft | 17 kts | 317° |
| 2026-05-03 21:14 | 43.68587 | -79.62890 | 561 ft | 20 kts | 317° |
| 2026-05-03 21:14 | 43.68686 | -79.63020 | 561 ft | 19 kts | 316° |
| 2026-05-03 21:14 | 43.68780 | -79.63141 | 562 ft | 18 kts | 316° |
| 2026-05-03 21:14 | 43.68884 | -79.63277 | 562 ft | 21 kts | 316° |
| 2026-05-03 21:15 | 43.68984 | -79.63412 | 564 ft | 20 kts | 315° |
| 2026-05-03 21:15 | 43.69065 | -79.63516 | 567 ft | 12 kts | 317° |
| 2026-05-03 21:15 | 43.69134 | -79.63509 | 567 ft | 9 kts | 41° |
| 2026-05-03 21:15 | 43.69202 | -79.63430 | 565 ft | 18 kts | 21° |
| 2026-05-03 21:16 | 43.69310 | -79.63420 | 565 ft | 15 kts | 1° |
| 2026-05-03 21:16 | 43.69385 | -79.63453 | 570 ft | 11 kts | 320° |
| 2026-05-03 21:16 | 43.69390 | -79.63548 | 566 ft | 12 kts | 227° |
| 2026-05-03 21:16 | 43.69335 | -79.63623 | 563 ft | 5 kts | 226° |
| 2026-05-03 21:17 | 43.69330 | -79.63631 | 563 ft | 0 kts | 226° |
| 2026-05-03 21:17 | 43.69312 | -79.63656 | 562 ft | 14 kts | 226° |
| 2026-05-03 21:17 | 43.69088 | -79.63983 | 572 ft | 80 kts | 226° |
| 2026-05-03 21:18 | 43.68574 | -79.64726 | 567 ft | 134 kts | 227° |
| 2026-05-03 21:18 | 43.67839 | -79.65791 | 826 ft | 155 kts | 234° |
| 2026-05-03 21:18 | 43.67077 | -79.66841 | 1515 ft | 158 kts | 231° |
| 2026-05-03 21:18 | 43.66337 | -79.67965 | 2243 ft | 157 kts | 239° |
| 2026-05-03 21:19 | 43.65710 | -79.69270 | 2653 ft | 172 kts | 243° |
| 2026-05-03 21:19 | 43.65030 | -79.70773 | 2912 ft | 197 kts | 242° |
| 2026-05-03 21:19 | 43.64251 | -79.72469 | 3319 ft | 221 kts | 241° |
| 2026-05-03 21:19 | 43.63385 | -79.74298 | 4007 ft | 232 kts | 240° |
| 2026-05-03 21:20 | 43.62469 | -79.76174 | 4803 ft | 237 kts | 240° |
| 2026-05-03 21:20 | 43.61518 | -79.78050 | 5675 ft | 241 kts | 236° |
| 2026-05-03 21:20 | 43.60185 | -79.79526 | 6582 ft | 256 kts | 212° |
| 2026-05-03 21:20 | 43.58367 | -79.79958 | 7433 ft | 281 kts | 182° |
| 2026-05-03 21:21 | 43.56475 | -79.78943 | 8197 ft | 308 kts | 148° |
| 2026-05-03 21:21 | 43.55049 | -79.76647 | 8946 ft | 324 kts | 123° |
| 2026-05-03 21:21 | 43.54052 | -79.73824 | 9728 ft | 331 kts | 113° |
| 2026-05-03 21:21 | 43.53266 | -79.70804 | 10387 ft | 340 kts | 109° |
| 2026-05-03 21:22 | 43.52514 | -79.67592 | 10611 ft | 363 kts | 108° |
| 2026-05-03 21:22 | 43.51711 | -79.64196 | 10995 ft | 378 kts | 107° |
| 2026-05-03 21:22 | 43.51155 | -79.60639 | 11659 ft | 383 kts | 96° |
| 2026-05-03 21:22 | 43.51026 | -79.56970 | 12415 ft | 384 kts | 85° |
| 2026-05-03 21:23 | 43.51336 | -79.53335 | 13176 ft | 382 kts | 73° |
| 2026-05-03 21:23 | 43.51982 | -79.49782 | 13895 ft | 383 kts | 71° |
| 2026-05-03 21:23 | 43.52658 | -79.46217 | 14554 ft | 385 kts | 71° |
| 2026-05-03 21:23 | 43.53341 | -79.42640 | 15198 ft | 388 kts | 71° |
| 2026-05-03 21:24 | 43.54077 | -79.39049 | 15818 ft | 391 kts | 69° |
| 2026-05-03 21:24 | 43.54879 | -79.35452 | 16423 ft | 394 kts | 68° |
| 2026-05-03 21:24 | 43.55718 | -79.31835 | 17042 ft | 397 kts | 68° |
| 2026-05-03 21:24 | 43.56566 | -79.28201 | 17660 ft | 399 kts | 68° |
| 2026-05-03 21:25 | 43.57412 | -79.24539 | 18272 ft | 402 kts | 69° |
| 2026-05-03 21:25 | 43.58255 | -79.20839 | 18816 ft | 405 kts | 69° |
| 2026-05-03 21:25 | 43.59090 | -79.17114 | 19362 ft | 408 kts | 69° |
| 2026-05-03 21:25 | 43.59923 | -79.13360 | 19905 ft | 411 kts | 69° |
| 2026-05-03 21:26 | 43.60759 | -79.09571 | 20451 ft | 414 kts | 69° |
| 2026-05-03 21:26 | 43.61598 | -79.05761 | 20981 ft | 416 kts | 69° |
| 2026-05-03 21:26 | 43.62438 | -79.01932 | 21548 ft | 418 kts | 69° |
| 2026-05-03 21:26 | 43.63286 | -78.98077 | 22094 ft | 421 kts | 69° |
| 2026-05-03 21:27 | 43.64138 | -78.94197 | 22614 ft | 423 kts | 69° |
| 2026-05-03 21:27 | 43.64998 | -78.90293 | 23112 ft | 426 kts | 69° |
| 2026-05-03 21:27 | 43.65859 | -78.86372 | 23577 ft | 429 kts | 69° |
| 2026-05-03 21:27 | 43.66727 | -78.82409 | 23975 ft | 431 kts | 69° |
| 2026-05-03 21:28 | 43.67593 | -78.78429 | 24375 ft | 434 kts | 69° |
| 2026-05-03 21:28 | 43.68464 | -78.74425 | 24754 ft | 436 kts | 69° |
| 2026-05-03 21:28 | 43.69448 | -78.70458 | 25137 ft | 436 kts | 63° |
| 2026-05-03 21:28 | 43.70645 | -78.66601 | 25516 ft | 437 kts | 62° |
| 2026-05-03 21:29 | 43.71845 | -78.62725 | 25894 ft | 439 kts | 63° |
| 2026-05-03 21:29 | 43.73041 | -78.58846 | 26258 ft | 441 kts | 63° |
| 2026-05-03 21:29 | 43.74248 | -78.54926 | 26613 ft | 443 kts | 63° |
| 2026-05-03 21:29 | 43.75455 | -78.50988 | 26962 ft | 445 kts | 63° |
| 2026-05-03 21:30 | 43.76666 | -78.47037 | 27305 ft | 447 kts | 63° |
| 2026-05-03 21:30 | 43.77883 | -78.43066 | 27639 ft | 450 kts | 63° |
| 2026-05-03 21:30 | 43.79099 | -78.39065 | 27977 ft | 452 kts | 63° |
| 2026-05-03 21:30 | 43.80320 | -78.35043 | 28305 ft | 454 kts | 63° |
| 2026-05-03 21:31 | 43.81547 | -78.31000 | 28624 ft | 456 kts | 63° |
| 2026-05-03 21:31 | 43.82777 | -78.26954 | 28950 ft | 458 kts | 63° |
| 2026-05-03 21:31 | 43.84013 | -78.22889 | 29243 ft | 459 kts | 63° |
| 2026-05-03 21:31 | 43.85241 | -78.18838 | 29538 ft | 461 kts | 64° |
| 2026-05-03 21:32 | 43.86483 | -78.14730 | 29828 ft | 463 kts | 64° |
| 2026-05-03 21:32 | 43.87749 | -78.10546 | 30078 ft | 465 kts | 64° |
| 2026-05-03 21:32 | 43.89000 | -78.06411 | 30301 ft | 467 kts | 64° |
| 2026-05-03 21:32 | 43.90260 | -78.02237 | 30505 ft | 469 kts | 64° |
| 2026-05-03 21:33 | 43.91502 | -77.98108 | 30695 ft | 471 kts | 64° |
| 2026-05-03 21:33 | 43.92764 | -77.93910 | 30917 ft | 473 kts | 64° |
| 2026-05-03 21:33 | 43.94029 | -77.89693 | 31191 ft | 473 kts | 64° |
| 2026-05-03 21:33 | 43.95287 | -77.85481 | 31455 ft | 473 kts | 64° |
| 2026-05-03 21:34 | 43.96544 | -77.81266 | 31704 ft | 473 kts | 64° |
| 2026-05-03 21:34 | 43.97800 | -77.77045 | 31953 ft | 474 kts | 64° |
| 2026-05-03 21:34 | 43.99054 | -77.72819 | 32198 ft | 474 kts | 64° |
| 2026-05-03 21:34 | 44.00313 | -77.68578 | 32441 ft | 475 kts | 64° |
| 2026-05-03 21:35 | 44.01573 | -77.64328 | 32687 ft | 475 kts | 64° |
| 2026-05-03 21:35 | 44.02826 | -77.60091 | 32931 ft | 476 kts | 64° |
| 2026-05-03 21:35 | 44.04086 | -77.55833 | 33198 ft | 476 kts | 64° |
| 2026-05-03 21:35 | 44.05347 | -77.51575 | 33481 ft | 477 kts | 65° |
| 2026-05-03 21:36 | 44.06607 | -77.47307 | 33743 ft | 477 kts | 65° |
| 2026-05-03 21:36 | 44.07866 | -77.43035 | 33971 ft | 478 kts | 64° |
| 2026-05-03 21:36 | 44.09168 | -77.38785 | 34188 ft | 477 kts | 63° |
| 2026-05-03 21:36 | 44.10532 | -77.34586 | 34394 ft | 477 kts | 62° |
| 2026-05-03 21:37 | 44.11944 | -77.30399 | 34598 ft | 477 kts | 62° |
| 2026-05-03 21:37 | 44.13371 | -77.26215 | 34797 ft | 477 kts | 62° |
| 2026-05-03 21:37 | 44.14792 | -77.22039 | 35004 ft | 478 kts | 62° |
| 2026-05-03 21:37 | 44.16203 | -77.17847 | 35194 ft | 478 kts | 62° |
| 2026-05-03 21:38 | 44.17598 | -77.13647 | 35380 ft | 478 kts | 63° |
| 2026-05-03 21:38 | 44.18981 | -77.09419 | 35562 ft | 479 kts | 63° |
| 2026-05-03 21:38 | 44.20356 | -77.05190 | 35738 ft | 479 kts | 63° |
| 2026-05-03 21:38 | 44.21725 | -77.00956 | 35916 ft | 479 kts | 63° |
| 2026-05-03 21:39 | 44.23092 | -76.96722 | 36072 ft | 479 kts | 63° |
| 2026-05-03 21:39 | 44.24469 | -76.92469 | 36267 ft | 480 kts | 63° |
| 2026-05-03 21:39 | 44.25844 | -76.88233 | 36428 ft | 479 kts | 63° |
| 2026-05-03 21:39 | 44.27219 | -76.84007 | 36577 ft | 479 kts | 63° |
| 2026-05-03 21:40 | 44.28582 | -76.79822 | 36735 ft | 479 kts | 63° |
| 2026-05-03 21:40 | 44.29977 | -76.75528 | 36886 ft | 479 kts | 64° |
| 2026-05-03 21:40 | 44.32717 | -76.67052 | 36904 ft | 479 kts | 64° |
| 2026-05-03 21:41 | 44.35430 | -76.58620 | 36904 ft | 479 kts | 64° |
| 2026-05-03 21:41 | 44.38152 | -76.50129 | 36898 ft | 478 kts | 64° |
| 2026-05-03 21:42 | 44.40870 | -76.41639 | 36898 ft | 478 kts | 64° |
| 2026-05-03 21:42 | 44.43583 | -76.33125 | 36894 ft | 479 kts | 64° |
| 2026-05-03 21:43 | 44.46287 | -76.24610 | 36898 ft | 479 kts | 64° |
| 2026-05-03 21:43 | 44.48986 | -76.16094 | 36890 ft | 479 kts | 64° |
| 2026-05-03 21:44 | 44.51673 | -76.07554 | 36890 ft | 479 kts | 64° |
| 2026-05-03 21:44 | 44.54352 | -75.98988 | 36889 ft | 479 kts | 65° |
| 2026-05-03 21:45 | 44.57030 | -75.90424 | 36891 ft | 479 kts | 65° |
| 2026-05-03 21:45 | 44.59707 | -75.81846 | 36878 ft | 480 kts | 65° |
| 2026-05-03 21:46 | 44.62346 | -75.73330 | 36850 ft | 477 kts | 65° |
| 2026-05-03 21:46 | 44.64994 | -75.64770 | 36841 ft | 478 kts | 65° |
| 2026-05-03 21:47 | 44.67472 | -75.56068 | 36848 ft | 479 kts | 68° |
| 2026-05-03 21:47 | 44.69394 | -75.48773 | 36849 ft | 479 kts | 69° |
| 2026-05-03 21:48 | 44.71717 | -75.39983 | 36849 ft | 479 kts | 68° |
| 2026-05-03 21:48 | 44.74139 | -75.31271 | 36853 ft | 478 kts | 66° |
| 2026-05-03 21:49 | 44.76720 | -75.22651 | 36858 ft | 478 kts | 65° |
| 2026-05-03 21:49 | 44.79314 | -75.14046 | 36867 ft | 477 kts | 66° |
| 2026-05-03 21:50 | 44.81860 | -75.05412 | 36882 ft | 477 kts | 66° |
| 2026-05-03 21:50 | 44.84365 | -74.96748 | 36868 ft | 477 kts | 66° |
| 2026-05-03 21:51 | 44.86859 | -74.88083 | 36866 ft | 477 kts | 66° |
| 2026-05-03 21:51 | 44.89359 | -74.79439 | 36865 ft | 476 kts | 66° |
| 2026-05-03 21:52 | 44.91834 | -74.70759 | 36862 ft | 477 kts | 69° |
| 2026-05-03 21:52 | 44.93917 | -74.61861 | 36874 ft | 477 kts | 73° |
| 2026-05-03 21:53 | 44.95743 | -74.52831 | 36856 ft | 477 kts | 73° |
| 2026-05-03 21:53 | 44.97581 | -74.43880 | 36855 ft | 477 kts | 73° |
| 2026-05-03 21:54 | 44.99518 | -74.34875 | 36856 ft | 477 kts | 72° |
| 2026-05-03 21:54 | 45.01309 | -74.25871 | 36847 ft | 477 kts | 75° |
| 2026-05-03 21:55 | 45.02949 | -74.16767 | 36847 ft | 477 kts | 75° |
| 2026-05-03 21:55 | 45.04574 | -74.07652 | 36847 ft | 477 kts | 75° |
| 2026-05-03 21:56 | 45.06230 | -73.98608 | 36853 ft | 477 kts | 75° |
| 2026-05-03 21:56 | 45.07717 | -73.89459 | 36846 ft | 476 kts | 84° |
| 2026-05-03 21:57 | 45.08148 | -73.80140 | 36843 ft | 476 kts | 87° |
| 2026-05-03 21:57 | 45.08504 | -73.70756 | 36840 ft | 477 kts | 87° |
| 2026-05-03 21:58 | 45.08850 | -73.61350 | 36837 ft | 477 kts | 87° |
| 2026-05-03 21:58 | 45.09203 | -73.52012 | 36846 ft | 477 kts | 87° |
| 2026-05-03 21:59 | 45.09535 | -73.42616 | 36844 ft | 478 kts | 88° |
| 2026-05-03 21:59 | 45.09847 | -73.33187 | 36853 ft | 478 kts | 88° |
| 2026-05-03 22:00 | 45.10150 | -73.23804 | 36846 ft | 478 kts | 88° |
| 2026-05-03 22:00 | 45.10448 | -73.14387 | 36858 ft | 478 kts | 88° |
| 2026-05-03 22:01 | 45.10731 | -73.04971 | 36869 ft | 478 kts | 88° |
| 2026-05-03 22:01 | 45.11021 | -72.95578 | 36871 ft | 477 kts | 88° |
| 2026-05-03 22:02 | 45.11300 | -72.86262 | 36865 ft | 477 kts | 88° |
| 2026-05-03 22:02 | 45.11564 | -72.76815 | 36866 ft | 477 kts | 88° |
| 2026-05-03 22:03 | 45.11819 | -72.67504 | 36867 ft | 477 kts | 88° |
| 2026-05-03 22:03 | 45.12070 | -72.58121 | 36867 ft | 476 kts | 88° |
| 2026-05-03 22:04 | 45.12317 | -72.48751 | 36865 ft | 476 kts | 89° |
| 2026-05-03 22:04 | 45.12553 | -72.39351 | 36856 ft | 476 kts | 89° |
| 2026-05-03 22:05 | 45.12780 | -72.30013 | 36857 ft | 476 kts | 89° |
| 2026-05-03 22:05 | 45.13003 | -72.20641 | 36861 ft | 476 kts | 89° |
| 2026-05-03 22:06 | 45.13212 | -72.11258 | 36864 ft | 476 kts | 89° |
| 2026-05-03 22:06 | 45.13417 | -72.01872 | 36853 ft | 476 kts | 89° |
| 2026-05-03 22:07 | 45.13623 | -71.92540 | 36860 ft | 476 kts | 89° |
| 2026-05-03 22:07 | 45.13816 | -71.83154 | 36857 ft | 476 kts | 89° |
| 2026-05-03 22:08 | 45.13990 | -71.73759 | 36856 ft | 476 kts | 89° |
| 2026-05-03 22:08 | 45.14173 | -71.64427 | 36844 ft | 475 kts | 90° |
| 2026-05-03 22:09 | 45.14263 | -71.55038 | 36839 ft | 475 kts | 92° |
| 2026-05-03 22:10 | 45.13763 | -71.41052 | 36849 ft | 474 kts | 96° |
| 2026-05-03 22:10 | 45.13310 | -71.31744 | 36844 ft | 475 kts | 95° |
| 2026-05-03 22:11 | 45.12931 | -71.22378 | 36830 ft | 475 kts | 95° |
| 2026-05-03 22:11 | 45.12597 | -71.13011 | 36831 ft | 475 kts | 95° |
| 2026-05-03 22:12 | 45.12257 | -71.03708 | 36824 ft | 475 kts | 95° |
| 2026-05-03 22:12 | 45.11885 | -70.94348 | 36823 ft | 476 kts | 95° |
| 2026-05-03 22:13 | 45.11493 | -70.84986 | 36797 ft | 476 kts | 95° |
| 2026-05-03 22:13 | 45.11104 | -70.75671 | 36780 ft | 474 kts | 95° |
| 2026-05-03 22:14 | 45.10712 | -70.66338 | 36788 ft | 475 kts | 95° |
| 2026-05-03 22:14 | 45.10310 | -70.57011 | 36777 ft | 475 kts | 95° |
| 2026-05-03 22:15 | 45.09892 | -70.47668 | 36782 ft | 476 kts | 95° |
| 2026-05-03 22:15 | 45.09474 | -70.38323 | 36768 ft | 476 kts | 95° |
| 2026-05-03 22:16 | 45.09054 | -70.28972 | 36770 ft | 476 kts | 96° |
| 2026-05-03 22:16 | 45.08617 | -70.19630 | 36778 ft | 476 kts | 96° |
| 2026-05-03 22:17 | 45.08171 | -70.10287 | 36769 ft | 475 kts | 96° |
| 2026-05-03 22:17 | 45.07721 | -70.01021 | 36767 ft | 475 kts | 96° |
| 2026-05-03 22:18 | 45.07262 | -69.91690 | 36759 ft | 475 kts | 96° |
| 2026-05-03 22:18 | 45.06800 | -69.82366 | 36749 ft | 475 kts | 96° |
| 2026-05-03 22:19 | 45.06338 | -69.73061 | 36744 ft | 475 kts | 96° |
| 2026-05-03 22:19 | 45.05852 | -69.63734 | 36720 ft | 475 kts | 96° |
| 2026-05-03 22:20 | 45.05361 | -69.54417 | 36729 ft | 475 kts | 96° |
| 2026-05-03 22:20 | 45.04863 | -69.45093 | 36734 ft | 475 kts | 96° |
| 2026-05-03 22:21 | 45.04361 | -69.35838 | 36737 ft | 475 kts | 96° |
| 2026-05-03 22:21 | 45.03853 | -69.26515 | 36722 ft | 475 kts | 97° |
| 2026-05-03 22:22 | 45.03346 | -69.17303 | 36735 ft | 475 kts | 97° |
| 2026-05-03 22:22 | 45.02818 | -69.07903 | 36736 ft | 474 kts | 97° |
| 2026-05-03 22:23 | 45.02284 | -68.98614 | 36743 ft | 474 kts | 97° |
| 2026-05-03 22:23 | 45.01739 | -68.89331 | 36743 ft | 474 kts | 97° |
| 2026-05-03 22:24 | 45.01192 | -68.80060 | 36732 ft | 473 kts | 98° |
| 2026-05-03 22:24 | 45.00640 | -68.70782 | 36732 ft | 473 kts | 98° |
| 2026-05-03 22:25 | 45.00079 | -68.61522 | 36734 ft | 473 kts | 98° |
| 2026-05-03 22:25 | 44.99510 | -68.52261 | 36724 ft | 473 kts | 98° |
| 2026-05-03 22:26 | 44.99030 | -68.44555 | 36714 ft | 473 kts | 98° |
| 2026-05-03 22:26 | 44.98450 | -68.35301 | 36718 ft | 473 kts | 98° |
| 2026-05-03 22:27 | 44.97865 | -68.26062 | 36726 ft | 472 kts | 98° |
| 2026-05-03 22:27 | 44.97174 | -68.15329 | 36716 ft | 472 kts | 98° |
| 2026-05-03 22:28 | 44.96667 | -68.07589 | 36686 ft | 472 kts | 98° |
| 2026-05-03 22:28 | 44.96056 | -67.98392 | 36693 ft | 472 kts | 99° |
| 2026-05-03 22:29 | 44.95441 | -67.89139 | 36679 ft | 472 kts | 98° |
| 2026-05-03 22:29 | 44.94815 | -67.79910 | 36685 ft | 472 kts | 99° |
| 2026-05-03 22:30 | 44.94180 | -67.70672 | 36656 ft | 472 kts | 99° |
| 2026-05-03 22:30 | 44.93540 | -67.61450 | 36660 ft | 472 kts | 99° |
| 2026-05-03 22:31 | 44.92891 | -67.52225 | 36671 ft | 472 kts | 99° |
| 2026-05-03 22:31 | 44.92237 | -67.43010 | 36665 ft | 472 kts | 99° |
| 2026-05-03 22:32 | 44.91570 | -67.33805 | 36662 ft | 472 kts | 99° |
| 2026-05-03 22:32 | 44.90901 | -67.24607 | 36645 ft | 471 kts | 100° |
| 2026-05-03 22:33 | 44.90270 | -67.15440 | 36648 ft | 473 kts | 96° |
| 2026-05-03 22:33 | 44.90247 | -67.06130 | 36649 ft | 475 kts | 94° |
| 2026-05-03 22:34 | 44.90236 | -66.96812 | 36636 ft | 475 kts | 94° |
| 2026-05-03 22:34 | 44.90215 | -66.87481 | 36608 ft | 475 kts | 94° |
| 2026-05-03 22:35 | 44.90179 | -66.78162 | 36596 ft | 476 kts | 94° |
| 2026-05-03 22:35 | 44.90143 | -66.68829 | 36600 ft | 476 kts | 94° |
| 2026-05-03 22:36 | 44.90105 | -66.59484 | 36587 ft | 476 kts | 94° |
| 2026-05-03 22:36 | 44.90053 | -66.50125 | 36589 ft | 476 kts | 94° |
| 2026-05-03 22:37 | 44.89991 | -66.40784 | 36573 ft | 477 kts | 94° |
| 2026-05-03 22:37 | 44.89927 | -66.31462 | 36377 ft | 476 kts | 94° |
| 2026-05-03 22:37 | 44.89894 | -66.26776 | 36037 ft | 475 kts | 94° |
| 2026-05-03 22:38 | 44.89858 | -66.22089 | 35186 ft | 479 kts | 94° |
| 2026-05-03 22:38 | 44.89817 | -66.17378 | 34341 ft | 482 kts | 94° |
| 2026-05-03 22:38 | 44.89773 | -66.12670 | 33775 ft | 478 kts | 94° |
| 2026-05-03 22:38 | 44.89730 | -66.07994 | 33109 ft | 475 kts | 94° |
| 2026-05-03 22:39 | 44.89688 | -66.03432 | 32538 ft | 468 kts | 94° |
| 2026-05-03 22:39 | 44.89646 | -65.98872 | 31946 ft | 462 kts | 94° |
| 2026-05-03 22:39 | 44.89605 | -65.94388 | 31504 ft | 452 kts | 92° |
| 2026-05-03 22:39 | 44.89560 | -65.90008 | 31054 ft | 443 kts | 93° |
| 2026-05-03 22:40 | 44.89510 | -65.85687 | 30568 ft | 435 kts | 93° |
| 2026-05-03 22:40 | 44.89460 | -65.81501 | 29886 ft | 421 kts | 92° |
| 2026-05-03 22:40 | 44.89410 | -65.77365 | 29190 ft | 413 kts | 92° |
| 2026-05-03 22:40 | 44.89363 | -65.73349 | 28697 ft | 405 kts | 93° |
| 2026-05-03 22:41 | 44.89312 | -65.69407 | 28180 ft | 399 kts | 92° |
| 2026-05-03 22:41 | 44.89259 | -65.65529 | 27674 ft | 393 kts | 92° |
| 2026-05-03 22:41 | 44.89206 | -65.61703 | 27224 ft | 387 kts | 93° |
| 2026-05-03 22:41 | 44.89154 | -65.57930 | 26777 ft | 382 kts | 93° |
| 2026-05-03 22:42 | 44.89103 | -65.54202 | 26366 ft | 377 kts | 91° |
| 2026-05-03 22:42 | 44.89049 | -65.50529 | 25950 ft | 371 kts | 93° |
| 2026-05-03 22:42 | 44.88995 | -65.46916 | 25555 ft | 366 kts | 93° |
| 2026-05-03 22:42 | 44.88941 | -65.43351 | 25168 ft | 362 kts | 93° |
| 2026-05-03 22:43 | 44.88888 | -65.39831 | 24790 ft | 357 kts | 93° |
| 2026-05-03 22:43 | 44.88832 | -65.36343 | 24384 ft | 353 kts | 92° |
| 2026-05-03 22:43 | 44.88778 | -65.32914 | 23968 ft | 349 kts | 92° |
| 2026-05-03 22:43 | 44.88723 | -65.29506 | 23578 ft | 345 kts | 94° |
| 2026-05-03 22:44 | 44.88666 | -65.26135 | 23177 ft | 342 kts | 92° |
| 2026-05-03 22:44 | 44.88611 | -65.22804 | 22737 ft | 339 kts | 93° |
| 2026-05-03 22:44 | 44.88556 | -65.19501 | 22329 ft | 334 kts | 93° |
| 2026-05-03 22:44 | 44.88503 | -65.16242 | 21929 ft | 330 kts | 93° |
| 2026-05-03 22:45 | 44.88449 | -65.13024 | 21536 ft | 326 kts | 92° |
| 2026-05-03 22:45 | 44.88393 | -65.09847 | 21154 ft | 323 kts | 92° |
| 2026-05-03 22:45 | 44.88336 | -65.06691 | 20772 ft | 320 kts | 93° |
| 2026-05-03 22:45 | 44.88278 | -65.03565 | 20396 ft | 318 kts | 92° |
| 2026-05-03 22:46 | 44.88219 | -65.00453 | 20028 ft | 316 kts | 92° |
| 2026-05-03 22:46 | 44.88159 | -64.97401 | 19652 ft | 313 kts | 92° |
| 2026-05-03 22:46 | 44.88101 | -64.94341 | 19284 ft | 311 kts | 92° |
| 2026-05-03 22:46 | 44.88043 | -64.91254 | 18917 ft | 310 kts | 92° |
| 2026-05-03 22:47 | 44.87985 | -64.88257 | 18550 ft | 309 kts | 92° |
| 2026-05-03 22:47 | 44.87926 | -64.85240 | 18195 ft | 307 kts | 92° |
| 2026-05-03 22:47 | 44.87864 | -64.82247 | 18003 ft | 304 kts | 92° |
| 2026-05-03 22:47 | 44.87801 | -64.79264 | 17936 ft | 303 kts | 92° |
| 2026-05-03 22:48 | 44.87739 | -64.76317 | 17787 ft | 300 kts | 92° |
| 2026-05-03 22:48 | 44.87676 | -64.73373 | 17454 ft | 300 kts | 92° |
| 2026-05-03 22:48 | 44.87612 | -64.70421 | 17102 ft | 301 kts | 92° |
| 2026-05-03 22:48 | 44.87546 | -64.67481 | 16714 ft | 299 kts | 92° |
| 2026-05-03 22:49 | 44.87479 | -64.64563 | 16375 ft | 298 kts | 92° |
| 2026-05-03 22:49 | 44.87412 | -64.61646 | 16025 ft | 297 kts | 92° |
| 2026-05-03 22:49 | 44.87346 | -64.58730 | 15683 ft | 297 kts | 92° |
| 2026-05-03 22:49 | 44.87281 | -64.55829 | 15342 ft | 296 kts | 92° |
| 2026-05-03 22:50 | 44.87215 | -64.52933 | 15001 ft | 295 kts | 92° |
| 2026-05-03 22:50 | 44.87149 | -64.50051 | 14628 ft | 294 kts | 92° |
| 2026-05-03 22:50 | 44.87081 | -64.47177 | 14295 ft | 293 kts | 93° |
| 2026-05-03 22:50 | 44.87013 | -64.44306 | 13961 ft | 292 kts | 93° |
| 2026-05-03 22:51 | 44.86945 | -64.41451 | 13611 ft | 292 kts | 93° |
| 2026-05-03 22:51 | 44.86878 | -64.38597 | 13270 ft | 291 kts | 94° |
| 2026-05-03 22:51 | 44.86812 | -64.35750 | 12877 ft | 290 kts | 94° |
| 2026-05-03 22:51 | 44.86745 | -64.32908 | 12518 ft | 289 kts | 93° |
| 2026-05-03 22:52 | 44.86674 | -64.30092 | 12176 ft | 287 kts | 94° |
| 2026-05-03 22:52 | 44.86600 | -64.27283 | 11818 ft | 285 kts | 94° |
| 2026-05-03 22:52 | 44.86528 | -64.24499 | 11467 ft | 283 kts | 93° |
| 2026-05-03 22:52 | 44.86452 | -64.21736 | 11115 ft | 281 kts | 96° |
| 2026-05-03 22:53 | 44.86103 | -64.19053 | 10741 ft | 278 kts | 109° |
| 2026-05-03 22:53 | 44.85465 | -64.16496 | 10387 ft | 276 kts | 110° |
| 2026-05-03 22:53 | 44.84832 | -64.13969 | 10156 ft | 269 kts | 110° |
| 2026-05-03 22:53 | 44.84226 | -64.11540 | 10023 ft | 254 kts | 110° |
| 2026-05-03 22:54 | 44.83651 | -64.09235 | 9712 ft | 247 kts | 110° |
| 2026-05-03 22:54 | 44.83091 | -64.07000 | 9340 ft | 239 kts | 110° |
| 2026-05-03 22:54 | 44.82535 | -64.04791 | 8860 ft | 247 kts | 109° |
| 2026-05-03 22:54 | 44.81964 | -64.02520 | 8454 ft | 243 kts | 109° |
| 2026-05-03 22:55 | 44.81404 | -64.00288 | 8086 ft | 242 kts | 109° |
| 2026-05-03 22:55 | 44.80847 | -63.98063 | 7814 ft | 236 kts | 108° |
| 2026-05-03 22:55 | 44.80309 | -63.95918 | 7618 ft | 228 kts | 107° |
| 2026-05-03 22:55 | 44.79785 | -63.93829 | 7250 ft | 228 kts | 107° |
| 2026-05-03 22:56 | 44.79261 | -63.91746 | 6930 ft | 224 kts | 107° |
| 2026-05-03 22:56 | 44.78739 | -63.89682 | 6545 ft | 224 kts | 107° |
| 2026-05-03 22:56 | 44.78216 | -63.87618 | 6194 ft | 222 kts | 107° |
| 2026-05-03 22:56 | 44.77704 | -63.85605 | 5932 ft | 217 kts | 107° |
| 2026-05-03 22:57 | 44.77206 | -63.83648 | 5760 ft | 207 kts | 105° |
| 2026-05-03 22:57 | 44.76727 | -63.81768 | 5534 ft | 201 kts | 105° |
| 2026-05-03 22:57 | 44.76257 | -63.79905 | 5117 ft | 203 kts | 104° |
| 2026-05-03 22:57 | 44.75778 | -63.78001 | 4550 ft | 211 kts | 102° |
| 2026-05-03 22:58 | 44.75284 | -63.76050 | 4190 ft | 211 kts | 102° |
| 2026-05-03 22:58 | 44.74795 | -63.74140 | 4021 ft | 202 kts | 102° |
| 2026-05-03 22:58 | 44.74328 | -63.72331 | 3961 ft | 192 kts | 102° |
| 2026-05-03 22:58 | 44.73884 | -63.70594 | 3833 ft | 186 kts | 104° |
| 2026-05-03 22:59 | 44.73457 | -63.68895 | 3750 ft | 184 kts | 101° |
| 2026-05-03 22:59 | 44.73350 | -63.67158 | 3655 ft | 177 kts | 78° |
| 2026-05-03 22:59 | 44.73798 | -63.65561 | 3478 ft | 178 kts | 55° |
| 2026-05-03 22:59 | 44.74701 | -63.64390 | 3233 ft | 177 kts | 38° |
| 2026-05-03 23:00 | 44.75713 | -63.63411 | 2995 ft | 175 kts | 38° |
| 2026-05-03 23:00 | 44.76704 | -63.62444 | 2679 ft | 172 kts | 38° |
| 2026-05-03 23:00 | 44.77679 | -63.61488 | 2448 ft | 169 kts | 37° |
| 2026-05-03 23:00 | 44.78628 | -63.60556 | 2243 ft | 163 kts | 37° |
| 2026-05-03 23:01 | 44.79536 | -63.59664 | 1996 ft | 156 kts | 36° |
| 2026-05-03 23:01 | 44.80394 | -63.58819 | 1789 ft | 147 kts | 36° |
| 2026-05-03 23:01 | 44.81184 | -63.58042 | 1586 ft | 129 kts | 34° |
| 2026-05-03 23:01 | 44.81876 | -63.57358 | 1429 ft | 115 kts | 32° |
| 2026-05-03 23:02 | 44.82518 | -63.56726 | 1273 ft | 114 kts | 31° |
| 2026-05-03 23:02 | 44.83162 | -63.56092 | 1123 ft | 111 kts | 31° |
| 2026-05-03 23:02 | 44.83806 | -63.55457 | 971 ft | 113 kts | 31° |
| 2026-05-03 23:02 | 44.84463 | -63.54813 | 820 ft | 117 kts | 30° |
| 2026-05-03 23:03 | 44.85135 | -63.54151 | 676 ft | 120 kts | 31° |
| 2026-05-03 23:03 | 44.85811 | -63.53458 | 678 ft | 121 kts | 33° |
| 2026-05-03 23:03 | 44.86495 | -63.52783 | 546 ft | 118 kts | 28° |
| 2026-05-03 23:03 | 44.87141 | -63.52159 | 457 ft | 101 kts | 32° |
| 2026-05-03 23:04 | 44.87636 | -63.51675 | 451 ft | 68 kts | 36° |
| 2026-05-03 23:04 | 44.87892 | -63.51421 | 451 ft | 31 kts | 36° |
| 2026-05-03 23:04 | 44.88051 | -63.51264 | 449 ft | 25 kts | 36° |
| 2026-05-03 23:04 | 44.88187 | -63.51129 | 449 ft | 22 kts | 35° |
| 2026-05-03 23:05 | 44.88296 | -63.51026 | 449 ft | 14 kts | 23° |
| 2026-05-03 23:05 | 44.88338 | -63.51063 | 450 ft | 11 kts | 311° |
| 2026-05-03 23:05 | 44.88388 | -63.51147 | 451 ft | 12 kts | 309° |
| 2026-05-03 23:05 | 44.88459 | -63.51204 | 452 ft | 12 kts | 348° |
| 2026-05-03 23:06 | 44.88542 | -63.51224 | 452 ft | 12 kts | 349° |
| 2026-05-03 23:06 | 44.88619 | -63.51244 | 452 ft | 9 kts | 349° |
| 2026-05-03 23:06 | 44.88651 | -63.51306 | 452 ft | 8 kts | 259° |
| 2026-05-03 23:06 | 44.88649 | -63.51317 | 452 ft | 1 kts | 258° |
| 2026-05-03 23:07 | 44.88645 | -63.51346 | 452 ft | 3 kts | 258° |
| 2026-05-03 23:07 | 44.88642 | -63.51368 | 452 ft | 2 kts | 259° |
| 2026-05-03 23:07 | 44.88642 | -63.51370 | 452 ft | 0 kts | 259° |